Time;durP1;ratioP1;P1;durP2;ratioP2;P2;SDS_P1;SDS_P2;PMS_P1;PMS_P2;Temp;Humidity;BMP_temperature;BMP_pressure;BME280_temperature;BME280_humidity;BME280_pressure;Samples;Min_cycle;Max_cycle;Signal;HPM_P1;HPM_P2
2023/07/04 00:01:11;;;;;;;4.45;1.50;;;;;;;26.53;59.33;100920.63;4862158;29;20050;-48
2023/07/04 00:03:41;;;;;;;5.50;1.50;;;;;;;26.52;59.46;100925.19;4862048;29;20053;-49
2023/07/04 00:06:12;;;;;;;2.60;1.50;;;;;;;26.53;59.28;100926.88;4861662;29;20073;-55
2023/07/04 01:09:18;;;;;;;4.00;1.87;;;;;;;26.49;57.58;100920.13;4802356;29;1138639;-55
2023/07/04 01:11:49;;;;;;;2.80;1.70;;;;;;;26.49;57.57;100925.53;4861290;29;20056;-54
2023/07/04 01:14:22;;;;;;;3.47;1.70;;;;;;;26.49;57.58;100928.25;4861286;29;20048;-55
2023/07/04 01:16:49;;;;;;;4.43;1.88;;;;;;;26.49;57.63;100919.28;4861168;29;20052;-51
2023/07/04 01:19:38;;;;;;;3.65;1.83;;;;;;;26.48;57.33;100906.72;4859769;29;20064;-49
2023/07/04 01:22:12;;;;;;;3.13;1.67;;;;;;;26.48;57.34;100904.88;4861154;29;20053;-50
2023/07/04 01:25:11;;;;;;;3.47;1.55;;;;;;;26.49;57.18;100900.28;4859781;29;20060;-50
2023/07/04 01:27:43;;;;;;;2.78;1.67;;;;;;;26.48;57.22;100906.72;4875038;29;20050;-55
2023/07/04 01:30:12;;;;;;;3.50;1.70;;;;;;;26.47;57.19;100908.59;4875177;29;20056;-55
2023/07/04 01:32:42;;;;;;;4.28;1.67;;;;;;;26.47;57.05;100905.06;4860901;29;20064;-55
2023/07/04 01:35:12;;;;;;;3.00;1.60;;;;;;;26.47;57.36;100905.06;4859654;29;20068;-55
2023/07/04 01:37:41;;;;;;;2.58;1.65;;;;;;;26.47;57.01;100910.47;4859255;29;20049;-56
2023/07/04 01:40:09;;;;;;;4.13;1.83;;;;;;;26.46;57.13;100920.50;4859590;29;20053;-55
2023/07/04 01:42:38;;;;;;;4.10;1.70;;;;;;;26.47;56.98;100916.75;4859374;29;20057;-55
2023/07/04 01:45:07;;;;;;;4.25;1.70;;;;;;;26.47;56.79;100915.91;4860926;29;20383;-54
2023/07/04 01:47:36;;;;;;;3.28;1.40;;;;;;;26.46;56.76;100906.09;4860739;29;20399;-55
2023/07/04 01:50:07;;;;;;;2.95;1.60;;;;;;;26.45;56.72;100907.91;4860749;29;20046;-55
2023/07/04 01:52:34;;;;;;;2.95;1.38;;;;;;;26.46;56.74;100901.50;4860921;29;20054;-56
2023/07/04 01:55:02;;;;;;;3.28;1.77;;;;;;;26.47;56.59;100900.47;4860864;29;20049;-56
2023/07/04 01:57:29;;;;;;;4.43;2.13;;;;;;;26.47;56.45;100903.19;4875072;29;20053;-49
2023/07/04 01:59:56;;;;;;;3.00;1.77;;;;;;;26.48;56.46;100906.72;4859549;29;20062;-49
2023/07/04 02:02:24;;;;;;;3.63;1.65;;;;;;;26.48;56.52;100907.56;4859365;29;20054;-50
2023/07/04 02:04:52;;;;;;;2.65;1.50;;;;;;;26.49;56.62;100914.69;4860358;29;20054;-49
2023/07/04 02:07:21;;;;;;;3.15;1.70;;;;;;;26.50;56.56;100915.56;4861051;29;20064;-49
2023/07/04 02:09:50;;;;;;;4.57;1.65;;;;;;;26.50;56.58;100916.41;4860614;29;20064;-49
2023/07/04 02:12:18;;;;;;;2.53;1.30;;;;;;;26.51;56.74;100917.25;4874866;29;20064;-48
2023/07/04 02:14:46;;;;;;;2.08;1.23;;;;;;;26.52;56.72;100914.34;4859129;29;20049;-48
2023/07/04 02:17:13;;;;;;;3.88;1.67;;;;;;;26.52;56.73;100918.94;4860940;29;20064;-49
2023/07/04 02:19:41;;;;;;;2.80;1.60;;;;;;;26.53;56.85;100932.31;4863470;29;20046;-50
2023/07/04 02:22:08;;;;;;;2.60;1.60;;;;;;;26.53;56.85;100932.31;4862570;29;20065;-50
2023/07/04 02:24:36;;;;;;;4.75;1.77;;;;;;;26.54;56.84;100927.75;4862562;29;20060;-49
2023/07/04 02:27:03;;;;;;;2.90;1.67;;;;;;;26.54;56.98;100930.47;4863908;29;20387;-49
2023/07/04 02:29:31;;;;;;;2.40;1.33;;;;;;;26.54;56.80;100938.63;4877851;29;20053;-50
2023/07/04 02:31:58;;;;;;;3.03;1.50;;;;;;;26.55;56.79;100945.75;4863724;29;20045;-50
2023/07/04 02:34:26;;;;;;;3.80;1.65;;;;;;;26.54;56.69;100947.59;4862575;29;20054;-49
2023/07/04 02:36:54;;;;;;;2.50;1.45;;;;;;;26.54;56.76;100950.31;4878263;29;20049;-55
2023/07/04 02:39:21;;;;;;;2.35;1.35;;;;;;;26.55;56.73;100945.75;4863590;29;20041;-56
2023/07/04 02:41:49;;;;;;;3.63;1.13;;;;;;;26.55;56.70;100948.44;4862263;29;20076;-57
2023/07/04 02:44:16;;;;;;;2.55;1.27;;;;;;;26.54;56.54;100942.19;4862328;29;20065;-55
2023/07/04 02:46:44;;;;;;;2.80;1.60;;;;;;;26.54;56.67;100939.47;4863917;29;20060;-58
2023/07/04 02:49:12;;;;;;;3.35;1.92;;;;;;;26.53;56.38;100936.91;4862138;29;20052;-58
2023/07/04 02:51:41;;;;;;;2.17;1.35;;;;;;;26.51;56.26;100928.09;4862261;29;20057;-58
2023/07/04 02:54:08;;;;;;;2.60;1.67;;;;;;;26.48;56.16;100926.56;4861768;29;20064;-57
2023/07/04 02:56:36;;;;;;;6.00;1.52;;;;;;;26.46;55.96;100925.94;4863432;29;20045;-55
2023/07/04 02:59:03;;;;;;;2.10;1.08;;;;;;;26.44;56.03;100919.78;4863323;29;20046;-55
2023/07/04 03:01:31;;;;;;;3.67;1.63;;;;;;;26.42;55.86;100927.28;4877529;29;20038;-55
2023/07/04 03:03:59;;;;;;;3.42;1.27;;;;;;;26.40;56.07;100910.28;4862015;29;20058;-54
2023/07/04 03:06:27;;;;;;;2.47;1.45;;;;;;;26.38;55.93;100907.78;4877017;29;20054;-55
2023/07/04 03:08:56;;;;;;;2.70;1.45;;;;;;;26.38;56.15;100904.22;4861706;29;20056;-55
2023/07/04 03:11:24;;;;;;;6.60;1.67;;;;;;;26.37;56.10;100905.22;4861643;29;20057;-55
2023/07/04 03:13:53;;;;;;;3.22;1.60;;;;;;;26.34;56.11;100902.88;4861843;29;20058;-55
2023/07/04 03:16:21;;;;;;;3.50;1.60;;;;;;;26.31;55.89;100897.78;4862275;29;20065;-57
2023/07/04 03:18:48;;;;;;;3.97;1.55;;;;;;;26.31;55.81;100900.50;4862598;29;20056;-58
2023/07/04 03:21:16;;;;;;;2.53;1.20;;;;;;;26.29;55.78;100907.97;4862799;29;20049;-57
2023/07/04 03:23:44;;;;;;;4.05;1.50;;;;;;;26.27;55.66;100889.16;4876779;29;20054;-57
2023/07/04 03:26:12;;;;;;;4.32;1.42;;;;;;;26.28;55.80;100890.00;4862840;29;20399;-57
2023/07/04 03:28:39;;;;;;;2.15;1.25;;;;;;;26.28;55.83;100895.44;4862284;29;20050;-58
2023/07/04 03:31:09;;;;;;;4.22;1.67;;;;;;;26.27;55.76;100888.31;4876376;29;20061;-58
2023/07/04 03:33:36;;;;;;;3.70;1.27;;;;;;;26.27;55.88;100891.88;4862661;29;20053;-58
2023/07/04 03:36:06;;;;;;;2.00;1.25;;;;;;;26.26;55.97;100892.06;4862481;29;20395;-58
2023/07/04 03:38:33;;;;;;;2.13;1.23;;;;;;;26.25;55.94;100893.94;4862971;29;20065;-57
2023/07/04 03:41:01;;;;;;;2.08;1.20;;;;;;;26.23;55.81;100898.66;4862539;29;20052;-58
2023/07/04 03:43:28;;;;;;;2.88;1.05;;;;;;;26.23;55.68;100892.41;4862456;29;20051;-57
2023/07/04 03:45:55;;;;;;;2.40;1.20;;;;;;;26.23;55.63;100898.66;4862589;29;20521;-55
2023/07/04 03:48:23;;;;;;;2.90;1.63;;;;;;;26.22;55.54;100898.84;4876531;29;20054;-55
2023/07/04 03:50:51;;;;;;;3.55;1.70;;;;;;;26.21;55.55;100900.72;4861106;29;20049;-55
2023/07/04 03:53:19;;;;;;;4.53;1.63;;;;;;;26.23;55.65;100905.97;4876619;29;20065;-55
2023/07/04 03:55:51;;;;;;;4.38;1.30;;;;;;;26.23;55.49;100903.25;4876482;29;20049;-55
2023/07/04 03:58:19;;;;;;;3.30;1.60;;;;;;;26.21;55.45;100895.31;4862255;29;20486;-57
2023/07/04 04:00:49;;;;;;;3.03;1.35;;;;;;;26.21;55.25;100905.28;4876462;29;20049;-57
2023/07/04 04:03:17;;;;;;;5.07;1.58;;;;;;;26.20;55.44;100909.03;4862204;29;20049;-57
2023/07/04 04:05:45;;;;;;;3.17;1.15;;;;;;;26.20;55.18;100912.59;4861991;29;20406;-55
2023/07/04 04:08:13;;;;;;;2.97;1.45;;;;;;;26.20;55.07;100911.75;4862030;29;20052;-55
2023/07/04 04:10:40;;;;;;;2.22;1.25;;;;;;;26.19;55.05;100901.91;4861695;29;20406;-52
2023/07/04 04:13:07;;;;;;;5.10;1.20;;;;;;;26.19;55.05;100899.19;4861861;29;20410;-54
2023/07/04 04:15:35;;;;;;;3.67;1.00;;;;;;;26.19;54.98;100912.78;4861787;29;20045;-54
2023/07/04 04:18:02;;;;;;;7.25;1.30;;;;;;;26.18;54.85;100908.38;4861833;29;20474;-57
2023/07/04 04:20:30;;;;;;;2.42;1.48;;;;;;;26.15;54.78;100898.69;4861881;29;20052;-57
2023/07/04 04:22:58;;;;;;;3.20;1.30;;;;;;;26.16;54.76;100894.13;4861823;29;20049;-57
2023/07/04 04:25:26;;;;;;;2.00;1.00;;;;;;;26.16;54.81;100904.97;4861756;29;20053;-57
2023/07/04 04:27:53;;;;;;;4.93;1.30;;;;;;;26.14;55.00;100902.44;4861810;29;20057;-58
2023/07/04 04:30:20;;;;;;;2.30;1.17;;;;;;;26.13;55.04;100909.75;4861686;29;20045;-57
2023/07/04 04:32:48;;;;;;;2.95;1.13;;;;;;;26.14;54.84;100907.88;4860545;29;20046;-57
2023/07/04 04:35:15;;;;;;;6.78;1.35;;;;;;;26.14;55.02;100910.59;4861769;29;20478;-57
2023/07/04 04:37:42;;;;;;;2.30;1.08;;;;;;;26.13;55.02;100904.31;4861706;29;20057;-58
2023/07/04 04:40:10;;;;;;;2.67;1.42;;;;;;;26.13;55.05;100904.31;4861480;29;20406;-56
2023/07/04 04:42:39;;;;;;;2.60;1.23;;;;;;;26.13;55.09;100907.03;4861628;29;20410;-57
2023/07/04 04:45:07;;;;;;;2.38;1.08;;;;;;;26.13;55.11;100907.03;4861430;29;20049;-56
2023/07/04 04:47:36;;;;;;;2.25;0.93;;;;;;;26.13;55.11;100907.03;4861624;29;20049;-54
2023/07/04 04:50:03;;;;;;;2.00;0.70;;;;;;;26.13;55.33;100907.03;4861547;29;20046;-56
2023/07/04 04:52:32;;;;;;;2.53;1.00;;;;;;;26.13;55.25;100912.47;4861565;29;20052;-52
2023/07/04 04:55:02;;;;;;;2.00;0.90;;;;;;;26.13;55.05;100909.75;4861446;29;20056;-55
2023/07/04 04:57:30;;;;;;;2.28;0.80;;;;;;;26.12;55.06;100915.31;4861519;29;20430;-58
2023/07/04 04:59:59;;;;;;;2.15;1.00;;;;;;;26.13;55.01;100914.31;4859761;29;20053;-57
2023/07/04 05:02:30;;;;;;;3.83;1.35;;;;;;;26.11;55.02;100906.34;4861456;29;20056;-57
2023/07/04 05:05:01;;;;;;;4.15;1.13;;;;;;;26.11;55.14;100902.78;4861362;29;20049;-57
2023/07/04 05:07:29;;;;;;;2.13;1.10;;;;;;;26.11;55.05;100906.34;4861259;29;20046;-55
2023/07/04 05:10:00;;;;;;;3.53;0.93;;;;;;;26.13;55.10;100917.03;4860929;29;20400;-54
2023/07/04 05:12:28;;;;;;;2.42;1.35;;;;;;;26.11;55.08;100908.22;4861230;29;20095;-53
2023/07/04 05:14:56;;;;;;;2.10;1.00;;;;;;;26.11;55.05;100917.19;4861306;29;20060;-54
2023/07/04 05:17:24;;;;;;;3.25;1.25;;;;;;;26.10;55.02;100907.38;4861424;29;20076;-55
2023/07/04 05:19:51;;;;;;;1.30;0.73;;;;;;;26.10;54.99;100912.78;4861312;29;20049;-50
2023/07/04 05:22:19;;;;;;;3.10;0.90;;;;;;;26.11;55.08;100911.78;4861074;29;20060;-50
2023/07/04 05:24:47;;;;;;;3.60;0.80;;;;;;;26.11;55.07;100916.34;4861061;29;20057;-52
2023/07/04 05:27:16;;;;;;;1.95;0.93;;;;;;;26.10;54.92;100909.25;4861161;29;20054;-56
2023/07/04 05:29:47;;;;;;;1.92;0.80;;;;;;;26.11;55.11;100919.06;4861020;29;20352;-56
2023/07/04 05:32:15;;;;;;;2.07;1.00;;;;;;;26.10;55.31;100920.94;4861001;29;20064;-57
2023/07/04 05:34:47;;;;;;;2.20;0.95;;;;;;;26.12;55.35;100920.75;4860994;29;20050;-56
2023/07/04 05:37:15;;;;;;;1.75;0.85;;;;;;;26.11;55.59;100922.63;4861052;29;20060;-56
2023/07/04 05:39:44;;;;;;;3.15;1.33;;;;;;;26.11;55.54;100911.78;4860687;29;20123;-56
2023/07/04 05:42:12;;;;;;;2.08;1.17;;;;;;;26.11;55.33;100935.34;4861029;29;20049;-56
2023/07/04 05:44:39;;;;;;;2.53;1.10;;;;;;;26.10;55.43;100937.22;4860900;29;20057;-57
2023/07/04 05:47:07;;;;;;;2.88;1.27;;;;;;;26.10;55.55;100937.22;4860768;29;20437;-56
2023/07/04 05:49:34;;;;;;;3.03;1.30;;;;;;;26.10;55.53;100937.22;4859594;29;20049;-56
2023/07/04 05:52:01;;;;;;;2.30;0.90;;;;;;;26.11;55.60;100933.47;4860757;29;20050;-57
2023/07/04 05:54:29;;;;;;;1.90;1.02;;;;;;;26.12;55.80;100928.88;4864335;29;20056;-58
2023/07/04 05:56:56;;;;;;;2.47;1.17;;;;;;;26.12;55.95;100929.72;4863966;29;20057;-56
2023/07/04 05:59:24;;;;;;;2.10;0.95;;;;;;;26.12;56.08;100937.88;4864341;29;20053;-56
2023/07/04 06:01:51;;;;;;;2.40;1.10;;;;;;;26.13;56.18;100936.88;4864458;29;20049;-57
2023/07/04 06:04:19;;;;;;;3.55;1.35;;;;;;;26.13;56.37;100926.03;4864305;29;20065;-57
2023/07/04 06:06:51;;;;;;;2.05;1.10;;;;;;;26.14;56.43;100919.56;4864269;29;20060;-57
2023/07/04 06:09:20;;;;;;;2.63;1.10;;;;;;;26.16;56.46;100929.41;4864025;29;20068;-57
2023/07/04 06:11:49;;;;;;;2.53;1.15;;;;;;;26.17;56.56;100929.25;4864053;29;20054;-57
2023/07/04 06:14:27;;;;;;;3.72;1.15;;;;;;;26.18;56.59;100916.50;4864166;29;20052;-57
2023/07/04 06:16:59;;;;;;;2.83;1.10;;;;;;;26.17;56.76;100926.53;4864207;29;20066;-57
2023/07/04 06:19:26;;;;;;;2.28;0.90;;;;;;;26.17;56.81;100925.66;4863962;29;20538;-57
2023/07/04 06:21:53;;;;;;;2.67;1.20;;;;;;;26.18;56.75;100921.94;4863993;29;20386;-57
2023/07/04 06:24:22;;;;;;;2.47;1.00;;;;;;;26.19;56.96;100924.47;4863901;29;20064;-57
2023/07/04 06:26:49;;;;;;;3.60;1.10;;;;;;;26.16;56.84;100921.25;4863847;29;20053;-53
2023/07/04 06:29:17;;;;;;;4.97;1.65;;;;;;;26.08;56.42;100916.69;4863799;29;20056;-51
2023/07/04 06:31:47;;;;;;;3.50;1.25;;;;;;;26.01;55.96;100926.53;4863834;29;20101;-53
2023/07/04 06:34:14;;;;;;;2.72;1.02;;;;;;;25.96;55.89;100931.66;4863782;29;20490;-51
2023/07/04 06:36:48;;;;;;;1.92;0.82;;;;;;;25.96;55.94;100924.34;4863820;29;20053;-50
2023/07/04 06:39:15;;;;;;;2.47;1.17;;;;;;;25.97;55.92;100930.63;4863939;29;20053;-50
2023/07/04 06:41:43;;;;;;;2.65;1.40;;;;;;;25.99;56.03;100928.59;4863486;29;20050;-51
2023/07/04 06:44:11;;;;;;;2.28;0.82;;;;;;;26.01;56.66;100931.97;4863513;29;20053;-51
2023/07/04 06:46:38;;;;;;;3.47;1.38;;;;;;;26.01;56.73;100938.25;4863652;29;20053;-57
2023/07/04 06:49:06;;;;;;;2.55;1.35;;;;;;;26.01;56.80;100932.84;4863285;29;20062;-57
2023/07/04 06:51:33;;;;;;;3.00;1.30;;;;;;;25.99;57.08;100937.56;4863298;29;20049;-56
2023/07/04 06:54:01;;;;;;;2.72;1.45;;;;;;;25.96;57.14;100932.50;4863376;29;20058;-56
2023/07/04 06:56:30;;;;;;;2.20;1.20;;;;;;;25.94;57.13;100937.25;4863333;29;20049;-55
2023/07/04 06:58:58;;;;;;;2.83;1.48;;;;;;;25.96;57.49;100940.63;4877279;29;20064;-54
2023/07/04 07:01:30;;;;;;;2.65;1.30;;;;;;;25.94;57.51;100937.25;4863162;29;20053;-52
2023/07/04 07:03:59;;;;;;;2.35;1.13;;;;;;;25.88;57.56;100943.34;4863110;29;20049;-52
2023/07/04 07:06:27;;;;;;;2.40;1.25;;;;;;;25.86;57.84;100950.84;4863253;29;20406;-47
2023/07/04 07:08:55;;;;;;;2.85;1.58;;;;;;;25.83;58.03;100949.31;4863164;29;20101;-47
2023/07/04 07:11:22;;;;;;;2.97;1.27;;;;;;;25.80;57.98;100956.94;4862790;29;20072;-47
2023/07/04 07:13:50;;;;;;;2.47;1.23;;;;;;;25.82;58.00;100960.34;4862799;29;20391;-52
2023/07/04 07:16:23;;;;;;;3.30;1.40;;;;;;;25.83;57.85;100952.00;4862745;29;20053;-56
2023/07/04 07:18:52;;;;;;;3.60;1.20;;;;;;;25.87;57.87;100958.78;4861916;29;20391;-56
2023/07/04 07:21:25;;;;;;;2.40;1.42;;;;;;;25.89;57.89;100961.34;4843784;29;20042;-58
2023/07/04 07:23:53;;;;;;;;;;;;;;;25.89;58.02;100967.63;4844265;29;20426;-56
2023/07/04 07:26:25;;;;;;;2.60;1.05;;;;;;;25.93;58.07;100962.69;4844169;29;19931;-50
2023/07/04 07:28:54;;;;;;;3.65;2.00;;;;;;;25.95;58.22;100960.66;4844201;29;20058;-50
2023/07/04 07:31:25;;;;;;;3.28;1.60;;;;;;;25.95;58.39;100959.81;4843976;29;20418;-50
2023/07/04 07:34:01;;;;;;;2.95;1.27;;;;;;;25.95;58.37;100963.34;4845247;29;20050;-49
2023/07/04 07:36:39;;;;;;;3.40;1.67;;;;;;;25.95;58.27;100966.06;4845927;29;20053;-55
2023/07/04 07:39:10;;;;;;;4.07;1.58;;;;;;;25.97;58.36;100969.47;4845453;29;20054;-56
2023/07/04 07:41:40;;;;;;;3.50;1.70;;;;;;;25.99;58.03;100972.84;4862153;29;20045;-49
2023/07/04 07:44:09;;;;;;;4.07;1.90;;;;;;;26.02;57.79;100967.09;4862184;29;20064;-50
2023/07/04 07:46:36;;;;;;;3.45;1.70;;;;;;;26.04;57.92;100966.91;4862211;29;20050;-49
2023/07/04 07:49:04;;;;;;;3.88;1.77;;;;;;;26.07;58.02;100974.69;4861979;29;20055;-49
2023/07/04 07:51:32;;;;;;;2.90;1.60;;;;;;;26.07;58.30;100974.69;4862174;29;20041;-53
2023/07/04 07:54:01;;;;;;;4.95;1.90;;;;;;;26.04;57.73;100965.03;4861872;29;20049;-51
2023/07/04 07:56:36;;;;;;;3.10;2.13;;;;;;;26.01;57.67;100973.53;4862163;29;20061;-50
2023/07/04 07:59:04;;;;;;;2.88;1.85;;;;;;;26.00;57.80;100979.13;4861868;29;20065;-51
2023/07/04 08:01:33;;;;;;;4.15;1.77;;;;;;;25.99;57.93;100982.84;4861870;29;20054;-53
2023/07/04 08:04:02;;;;;;;3.42;2.00;;;;;;;25.98;57.78;100982.00;4861921;29;20155;-49
2023/07/04 08:06:29;;;;;;;3.63;1.63;;;;;;;25.99;57.94;100977.44;4862130;29;20049;-56
2023/07/04 08:08:59;;;;;;;3.78;1.45;;;;;;;26.01;57.88;100970.81;4861634;29;20045;-56
2023/07/04 08:11:26;;;;;;;3.30;1.38;;;;;;;26.02;58.00;100977.94;4857219;29;20053;-56
2023/07/04 08:13:55;;;;;;;4.65;2.00;;;;;;;26.04;58.23;100975.88;4843334;29;20080;-55
2023/07/04 08:16:31;;;;;;;3.58;1.60;;;;;;;26.08;58.24;100974.50;4842641;29;20050;-59
2023/07/04 08:19:00;;;;;;;3.22;1.80;;;;;;;26.10;58.18;100980.63;4843098;29;20065;-59
2023/07/04 08:21:28;;;;;;;4.35;1.70;;;;;;;26.13;58.06;100984.88;4842775;29;20042;-59
2023/07/04 08:23:55;;;;;;;3.15;1.80;;;;;;;26.13;58.14;100988.44;4843250;29;20053;-59
2023/07/04 08:26:25;;;;;;;3.03;1.70;;;;;;;26.12;57.96;100984.00;4842980;29;20046;-59
2023/07/04 08:28:54;;;;;;;3.35;1.73;;;;;;;26.15;58.12;100988.25;4842944;29;20053;-59
2023/07/04 08:31:21;;;;;;;3.08;1.30;;;;;;;26.18;58.00;100992.50;4842830;29;20049;-60
2023/07/04 08:33:49;;;;;;;3.17;1.55;;;;;;;26.19;57.93;100995.03;4842627;29;20050;-59
2023/07/04 08:36:18;;;;;;;3.55;1.92;;;;;;;26.19;58.04;100994.19;4826334;29;20049;-50
2023/07/04 08:38:47;;;;;;;3.72;1.52;;;;;;;26.19;58.07;100986.88;4824028;29;20054;-49
2023/07/04 08:42:00;;;;;;;3.50;1.60;;;;;;;26.19;57.94;100986.88;4824290;29;20046;-49
2023/07/04 08:44:43;;;;;;;2.78;1.75;;;;;;;26.21;58.06;100989.41;4839616;29;20061;-50
2023/07/04 08:47:14;;;;;;;3.63;2.13;;;;;;;26.20;58.35;100985.00;4842920;29;20391;-52
2023/07/04 08:49:45;;;;;;;3.00;2.15;;;;;;;26.16;58.68;100983.66;4842281;29;20421;-51
2023/07/04 08:52:23;;;;;;;2.92;2.05;;;;;;;26.11;58.67;100981.47;4842764;29;20049;-50
2023/07/04 08:54:51;;;;;;;2.85;1.75;;;;;;;26.07;58.55;100980.97;4842767;29;20376;-51
2023/07/04 08:57:45;;;;;;;3.08;1.85;;;;;;;26.05;58.56;100971.28;4842792;29;20065;-59
2023/07/04 09:00:24;;;;;;;3.40;1.65;;;;;;;26.03;58.50;100981.50;4824364;29;20373;-59
2023/07/04 09:02:57;;;;;;;3.38;1.98;;;;;;;26.05;58.60;100983.03;4824592;29;20061;-59
2023/07/04 09:05:37;;;;;;;2.97;1.63;;;;;;;26.06;58.76;100981.16;4824443;29;20057;-59
2023/07/04 09:08:31;;;;;;;3.08;1.58;;;;;;;26.06;58.70;100984.72;4824542;29;20080;-49
2023/07/04 09:11:03;;;;;;;3.85;1.40;;;;;;;26.09;58.43;100986.22;4839418;29;20050;-53
2023/07/04 09:13:43;;;;;;;3.27;1.70;;;;;;;26.13;58.50;100980.28;4842849;29;20046;-49
2023/07/04 09:16:34;;;;;;;3.80;1.42;;;;;;;26.18;58.44;100987.06;4842549;29;20475;-49
2023/07/04 09:19:08;;;;;;;2.90;1.60;;;;;;;26.20;58.33;100988.56;4842221;29;20054;-49
2023/07/04 09:21:39;;;;;;;3.85;1.75;;;;;;;26.25;58.21;100986.19;4842485;29;20391;-50
2023/07/04 09:24:06;;;;;;;4.18;2.15;;;;;;;26.31;58.39;100981.94;4842696;29;20558;-50
2023/07/04 09:26:46;;;;;;;2.72;1.67;;;;;;;26.33;58.08;100983.47;4842527;29;20053;-49
2023/07/04 09:29:17;;;;;;;4.38;2.13;;;;;;;26.35;57.99;100986.00;4846154;29;20088;-47
2023/07/04 09:31:46;;;;;;;3.05;1.83;;;;;;;26.35;57.94;100977.84;4846999;29;20050;-51
2023/07/04 09:34:46;;;;;;;3.75;2.00;;;;;;;26.37;57.90;100986.66;4847392;29;20058;-48
2023/07/04 09:37:18;;;;;;;2.70;1.70;;;;;;;26.40;57.74;100986.31;4846508;29;20060;-47
2023/07/04 09:39:50;;;;;;;;;;;;;;;26.37;57.96;100983.94;4846716;29;20058;-48
2023/07/04 09:42:38;;;;;;;2.75;1.55;;;;;;;26.40;57.65;100989.03;4846350;29;19931;-48
2023/07/04 09:45:21;;;;;;;2.42;1.58;;;;;;;26.40;57.95;100986.31;4858578;29;20378;-49
2023/07/04 09:47:48;;;;;;;4.28;2.10;;;;;;;26.38;57.64;100982.94;4863429;29;20406;-51
2023/07/04 09:50:26;;;;;;;4.00;1.67;;;;;;;26.34;57.22;100978.88;4845629;29;20050;-48
2023/07/04 09:53:18;;;;;;;2.58;1.60;;;;;;;26.31;57.52;100976.50;4845724;29;20071;-49
2023/07/04 09:56:01;;;;;;;3.08;1.73;;;;;;;26.28;57.10;100980.41;4845982;29;20080;-50
2023/07/04 09:58:29;;;;;;;3.80;2.25;;;;;;;26.25;56.63;100979.91;4846017;29;20046;-49
2023/07/04 10:01:16;;;;;;;2.53;1.50;;;;;;;26.24;56.37;100979.06;4845153;29;20144;-49
2023/07/04 10:03:49;;;;;;;4.68;1.60;;;;;;;26.28;56.80;100979.56;4861516;29;20069;-48
2023/07/04 10:06:33;;;;;;;4.80;1.90;;;;;;;26.28;57.49;100984.97;4864142;29;20049;-59
2023/07/04 10:09:05;;;;;;;2.67;1.83;;;;;;;26.29;58.40;100979.41;4845599;29;20049;-59
2023/07/04 10:11:47;;;;;;;2.53;1.40;;;;;;;26.31;58.16;100976.50;4845340;29;20053;-59
2023/07/04 10:14:16;;;;;;;3.60;1.67;;;;;;;26.35;57.63;100980.56;4845340;29;20056;-59
2023/07/04 10:16:51;;;;;;;3.17;1.83;;;;;;;26.37;57.94;100975.78;4845509;29;20157;-49
2023/07/04 10:19:22;;;;;;;3.42;1.63;;;;;;;26.38;58.97;100970.22;4845119;29;20058;-49
2023/07/04 10:21:51;;;;;;;3.17;1.52;;;;;;;26.38;58.81;100966.66;4845185;29;20053;-52
2023/07/04 10:24:21;;;;;;;2.80;1.50;;;;;;;26.39;58.96;100965.63;4845068;29;20059;-49
2023/07/04 10:27:01;;;;;;;3.92;1.75;;;;;;;26.41;59.69;100968.16;4845216;29;20076;-60
2023/07/04 10:29:35;;;;;;;2.50;1.45;;;;;;;26.39;59.90;100965.63;4845122;29;20501;-61
2023/07/04 10:32:09;;;;;;;2.85;1.48;;;;;;;26.41;59.76;100963.56;4845073;29;20049;-60
2023/07/04 10:34:38;;;;;;;2.65;1.50;;;;;;;26.42;59.92;100959.84;4845166;29;20389;-60
2023/07/04 10:37:08;;;;;;;2.90;1.52;;;;;;;26.42;59.72;100959.84;4845122;29;20050;-49
2023/07/04 10:39:38;;;;;;;2.75;1.20;;;;;;;26.44;59.90;100960.50;4851928;29;20053;-50
2023/07/04 10:42:13;;;;;;;2.88;1.55;;;;;;;26.43;59.74;100958.81;4863028;29;20049;-52
2023/07/04 10:44:46;;;;;;;2.60;1.48;;;;;;;26.42;59.49;100954.41;4863113;29;20061;-51
2023/07/04 10:47:26;;;;;;;2.83;1.50;;;;;;;26.43;59.27;100957.97;4863419;29;20049;-60
2023/07/04 10:50:01;;;;;;;3.00;1.35;;;;;;;26.43;58.57;100955.25;4863168;29;20053;-60
2023/07/04 10:52:34;;;;;;;3.10;1.60;;;;;;;26.45;57.64;100945.94;4863093;29;20045;-60
2023/07/04 10:55:03;;;;;;;2.30;1.35;;;;;;;26.48;57.18;100951.00;4862917;29;20049;-61
2023/07/04 10:57:35;;;;;;;3.20;1.67;;;;;;;26.50;56.20;100945.44;4863166;29;20062;-50
2023/07/04 11:00:10;;;;;;;;;;;;;;;26.49;56.24;100946.44;4863204;29;20053;-49
2023/07/04 11:02:43;;;;;;;2.47;1.20;;;;;;;26.50;56.60;100938.13;4862835;29;19931;-48
2023/07/04 11:05:24;;;;;;;2.85;1.48;;;;;;;26.51;56.44;100942.53;4863103;29;20057;-49
2023/07/04 11:07:52;;;;;;;3.08;1.42;;;;;;;26.50;56.68;100935.41;4862795;29;20053;-61
2023/07/04 11:10:24;;;;;;;2.90;1.35;;;;;;;26.51;56.55;100941.69;4862494;29;20050;-60
2023/07/04 11:12:56;;;;;;;2.42;1.20;;;;;;;26.53;56.34;100936.91;4860538;29;20409;-51
2023/07/04 11:15:28;;;;;;;;;;;;;;;26.52;56.89;100927.91;4863051;29;20056;-51
2023/07/04 11:17:56;;;;;;;5.22;1.40;;;;;;;26.63;55.14;100926.69;4862440;29;19928;-54
2023/07/04 11:20:49;;;;;;;2.38;1.25;;;;;;;26.61;56.26;100934.16;4862722;29;20057;-52
2023/07/04 11:23:20;;;;;;;3.60;1.48;;;;;;;26.63;56.62;100937.56;4845280;29;20046;-57
2023/07/04 11:26:05;;;;;;;1.90;1.00;;;;;;;26.65;55.46;100929.22;4844420;29;20450;-49
2023/07/04 11:28:35;;;;;;;1.80;0.88;;;;;;;26.69;53.50;100931.38;4844272;29;20046;-52
2023/07/04 11:31:30;;;;;;;2.33;0.90;;;;;;;26.78;52.57;100929.47;4843959;29;20060;-54
2023/07/04 11:33:58;;;;;;;4.25;1.23;;;;;;;26.74;53.03;100917.28;4844365;29;20072;-51
2023/07/04 11:36:27;;;;;;;2.05;1.00;;;;;;;26.73;54.36;100926.44;4844212;29;20049;-53
2023/07/04 11:39:00;;;;;;;2.40;1.27;;;;;;;26.70;55.61;100918.66;4843895;29;20046;-51
2023/07/04 11:41:39;;;;;;;3.72;1.45;;;;;;;26.72;55.24;100920.19;4843863;29;20050;-54
2023/07/04 11:44:21;;;;;;;1.92;1.00;;;;;;;26.70;55.21;100924.09;4853895;29;20056;-52
2023/07/04 11:47:02;;;;;;;2.30;1.20;;;;;;;26.70;55.69;100910.50;4861517;29;20075;-51
2023/07/04 11:49:31;;;;;;;2.35;1.20;;;;;;;26.72;55.27;100916.63;4862080;29;20378;-52
2023/07/04 11:52:20;;;;;;;2.33;1.02;;;;;;;26.71;55.35;100913.06;4855600;29;20041;-51
2023/07/04 11:54:57;;;;;;;2.53;1.27;;;;;;;26.71;56.22;100914.94;4843319;29;20061;-53
2023/07/04 11:57:56;;;;;;;2.28;1.05;;;;;;;26.70;56.50;100913.22;4843682;29;20060;-49
2023/07/04 12:00:44;;;;;;;2.03;1.02;;;;;;;26.68;56.79;100910.69;4843575;29;20057;-52
2023/07/04 12:03:17;;;;;;;1.70;0.80;;;;;;;26.67;57.18;100908.16;4845697;29;20418;-49
2023/07/04 12:05:54;;;;;;;2.83;1.35;;;;;;;26.65;57.12;100897.47;4842735;29;20049;-49
2023/07/04 12:08:41;;;;;;;1.70;0.98;;;;;;;26.65;57.25;100891.19;4843259;29;20053;-48
2023/07/04 12:11:15;;;;;;;2.67;1.25;;;;;;;26.64;56.39;100890.34;4843108;29;20072;-49
2023/07/04 12:13:43;;;;;;;1.55;0.80;;;;;;;26.63;56.61;100884.09;4843277;29;20050;-48
2023/07/04 12:16:11;;;;;;;2.53;1.25;;;;;;;26.63;56.70;100878.66;4843260;29;20057;-48
2023/07/04 12:18:43;;;;;;;2.20;1.23;;;;;;;26.64;56.67;100882.22;4842780;29;20262;-49
2023/07/04 12:21:16;;;;;;;2.53;1.30;;;;;;;26.69;55.78;100887.09;4842832;29;20054;-48
2023/07/04 12:23:45;;;;;;;;;;;;;;;26.73;53.48;100878.41;4843340;29;20042;-48
2023/07/04 12:26:23;;;;;;;2.72;1.35;;;;;;;26.76;53.57;100882.66;4843044;29;19931;-54
2023/07/04 12:28:50;;;;;;;2.40;1.33;;;;;;;26.82;52.03;100871.06;4842884;29;20388;-55
2023/07/04 12:31:28;;;;;;;2.20;1.23;;;;;;;26.82;52.50;100881.94;4842209;29;20061;-54
2023/07/04 12:33:58;;;;;;;2.58;1.23;;;;;;;26.85;52.48;100879.69;4841981;29;20506;-52
2023/07/04 12:36:34;;;;;;;3.60;1.23;;;;;;;26.84;53.17;100871.72;4842846;29;20053;-48
2023/07/04 12:39:05;;;;;;;1.90;0.98;;;;;;;26.82;54.14;100874.63;4842946;29;20052;-47
2023/07/04 12:41:33;;;;;;;3.58;1.58;;;;;;;26.86;53.30;100866.97;4842818;29;20058;-48
2023/07/04 12:44:03;;;;;;;2.50;1.08;;;;;;;26.83;53.65;100865.44;4842845;29;20050;-49
2023/07/04 12:46:39;;;;;;;2.45;1.23;;;;;;;26.82;54.31;100866.47;4843554;29;20069;-48